Time;durP1;ratioP1;P1;durP2;ratioP2;P2;SDS_P1;SDS_P2;PMS_P1;PMS_P2;Temp;Humidity;BMP_temperature;BMP_pressure;BME280_temperature;BME280_humidity;BME280_pressure;Samples;Min_cycle;Max_cycle;Signal;HPM_P1;HPM_P2
2023/10/31 00:00:31;;;;;;;2.90;1.70;;;12.40;99.90;;;;;;15566053;22;20028;-85
2023/10/31 00:06:33;;;;;;;2.42;1.40;;;12.40;99.90;;;;;;15550700;22;20023;-84
2023/10/31 00:12:35;;;;;;;5.32;1.65;;;12.50;99.90;;;;;;15581131;22;20443;-84
2023/10/31 00:18:37;;;;;;;2.83;1.60;;;12.50;99.90;;;;;;15550192;22;20024;-84
2023/10/31 00:24:39;;;;;;;4.88;1.50;;;12.50;99.90;;;;;;15563696;22;20085;-84
2023/10/31 00:30:41;;;;;;;5.30;1.67;;;12.50;99.90;;;;;;15544327;22;20043;-82
2023/10/31 00:36:43;;;;;;;6.20;1.58;;;12.50;99.90;;;;;;15536382;22;20023;-86
2023/10/31 00:42:45;;;;;;;3.70;1.77;;;12.50;99.90;;;;;;15566833;22;20034;-83
2023/10/31 00:48:48;;;;;;;3.90;1.90;;;12.50;99.90;;;;;;15535999;22;20079;-85
2023/10/31 00:54:50;;;;;;;3.60;1.85;;;12.50;99.90;;;;;;15545565;22;20423;-84
2023/10/31 01:00:51;;;;;;;3.65;1.83;;;12.40;99.90;;;;;;15549343;22;20038;-84
2023/10/31 01:06:53;;;;;;;4.82;2.08;;;12.30;99.90;;;;;;15536847;22;20023;-85
2023/10/31 01:12:58;;;;;;;3.97;1.90;;;12.40;99.90;;;;;;15540382;22;20034;-83
2023/10/31 01:19:00;;;;;;;3.63;2.10;;;12.40;99.90;;;;;;15561770;22;20118;-86
2023/10/31 01:25:03;;;;;;;2.85;1.75;;;12.40;99.90;;;;;;15573746;22;20023;-86
2023/10/31 01:31:06;;;;;;;5.88;2.13;;;12.40;99.90;;;;;;15546107;22;20031;-85
2023/10/31 01:37:08;;;;;;;4.40;2.08;;;12.40;99.90;;;;;;15544669;22;20023;-85
2023/10/31 01:43:10;;;;;;;4.05;2.30;;;12.30;99.90;;;;;;15538601;22;20498;-85
2023/10/31 01:49:14;;;;;;;2.88;2.10;;;12.40;99.90;;;;;;15548622;22;20146;-85
2023/10/31 01:55:16;;;;;;;4.10;2.20;;;12.40;99.90;;;;;;15538388;22;20138;-88
2023/10/31 02:01:18;;;;;;;4.45;2.15;;;12.40;99.90;;;;;;15539205;22;20031;-84
2023/10/31 02:07:20;;;;;;;4.15;2.20;;;12.40;99.90;;;;;;15573735;22;20019;-87
2023/10/31 02:13:22;;;;;;;4.15;2.30;;;12.40;99.90;;;;;;15541806;22;20448;-85
2023/10/31 02:19:24;;;;;;;4.85;2.67;;;12.40;99.90;;;;;;15544771;22;20027;-84
2023/10/31 02:25:27;;;;;;;3.58;2.70;;;12.40;99.90;;;;;;15571643;22;20361;-84
2023/10/31 02:31:29;;;;;;;4.50;3.50;;;12.40;99.90;;;;;;15570150;22;20082;-84
2023/10/31 02:37:31;;;;;;;4.80;4.22;;;12.30;99.90;;;;;;15549753;22;20027;-84
2023/10/31 02:43:33;;;;;;;5.72;5.13;;;12.10;99.90;;;;;;15543119;22;20820;-84
2023/10/31 02:49:36;;;;;;;7.80;5.82;;;11.90;99.90;;;;;;15545581;22;20019;-84
2023/10/31 02:55:38;;;;;;;5.40;4.65;;;11.60;99.90;;;;;;15544580;22;20028;-84
2023/10/31 03:01:40;;;;;;;5.10;4.00;;;11.50;99.90;;;;;;15547412;22;20032;-81
2023/10/31 03:07:42;;;;;;;4.10;2.60;;;11.30;99.90;;;;;;15550976;22;20489;-81
2023/10/31 03:13:44;;;;;;;3.90;2.70;;;11.10;99.90;;;;;;15565862;22;20103;-84
2023/10/31 03:19:46;;;;;;;3.50;2.50;;;11.00;99.90;;;;;;15553321;22;20030;-82
2023/10/31 03:25:48;;;;;;;3.53;1.88;;;11.00;99.90;;;;;;15538598;22;20024;-84
2023/10/31 03:31:50;;;;;;;2.88;1.83;;;11.00;99.90;;;;;;15539051;22;20023;-83
2023/10/31 03:37:52;;;;;;;2.25;1.30;;;10.90;99.90;;;;;;15568182;22;20032;-81
2023/10/31 03:43:54;;;;;;;1.50;0.70;;;10.70;99.90;;;;;;15513487;22;20030;-81
2023/10/31 03:49:56;;;;;;;1.02;0.40;;;10.70;99.90;;;;;;15565315;22;20054;-81
2023/10/31 03:56:00;;;;;;;0.68;0.40;;;10.70;99.90;;;;;;15568077;22;20053;-80
2023/10/31 04:02:02;;;;;;;2.78;0.35;;;10.70;99.90;;;;;;15556620;22;20027;-84
2023/10/31 04:08:03;;;;;;;0.45;0.20;;;10.60;99.90;;;;;;15539185;22;20030;-78
2023/10/31 04:14:05;;;;;;;0.95;0.30;;;10.60;99.90;;;;;;15539398;22;20378;-81
2023/10/31 04:20:08;;;;;;;1.02;0.30;;;10.50;99.90;;;;;;15561040;22;20023;-81
2023/10/31 04:26:10;;;;;;;0.65;0.30;;;10.40;99.90;;;;;;15567186;22;20027;-81
2023/10/31 04:32:12;;;;;;;4.10;0.52;;;10.50;99.90;;;;;;15560990;22;20024;-80
2023/10/31 04:38:14;;;;;;;2.08;0.47;;;10.50;99.90;;;;;;15539867;22;20028;-80
2023/10/31 04:44:16;;;;;;;2.33;0.57;;;10.60;99.90;;;;;;15529445;22;20046;-79
2023/10/31 04:50:18;;;;;;;2.38;0.57;;;10.50;99.90;;;;;;15537414;22;20020;-81
2023/10/31 04:56:20;;;;;;;3.05;0.95;;;10.50;99.90;;;;;;15536247;22;20090;-80
2023/10/31 05:02:23;;;;;;;2.13;0.90;;;10.50;99.90;;;;;;15570155;22;20027;-80
2023/10/31 05:08:25;;;;;;;2.50;1.35;;;10.50;99.90;;;;;;15540660;22;20186;-80
2023/10/31 05:14:26;;;;;;;4.78;1.40;;;10.50;99.90;;;;;;15565896;22;20031;-81
2023/10/31 05:20:28;;;;;;;3.00;1.80;;;10.50;99.90;;;;;;15538321;22;20089;-82
2023/10/31 05:26:30;;;;;;;7.07;2.10;;;10.40;99.90;;;;;;15539310;22;20113;-81
2023/10/31 05:32:32;;;;;;;6.10;2.92;;;10.40;99.90;;;;;;15547563;22;20133;-78
2023/10/31 05:38:34;;;;;;;6.35;2.90;;;10.40;99.90;;;;;;15570379;22;20023;-79
2023/10/31 05:44:36;;;;;;;4.90;3.30;;;10.40;99.90;;;;;;15535894;22;20027;-81
2023/10/31 05:50:38;;;;;;;7.20;4.15;;;10.30;99.90;;;;;;15545358;22;20407;-83
2023/10/31 05:56:40;;;;;;;6.47;3.80;;;10.30;99.90;;;;;;15539522;22;20023;-82
2023/10/31 06:02:42;;;;;;;7.22;3.45;;;10.40;99.90;;;;;;15539302;22;20465;-81
2023/10/31 06:08:45;;;;;;;6.50;4.25;;;10.40;99.90;;;;;;15565569;22;20048;-80
2023/10/31 06:14:47;;;;;;;8.73;4.13;;;10.40;99.90;;;;;;15543782;22;20469;-82
2023/10/31 06:20:49;;;;;;;6.40;4.20;;;10.30;99.90;;;;;;15538516;22;20031;-82
2023/10/31 06:26:52;;;;;;;8.00;3.97;;;10.20;99.90;;;;;;15532773;22;20023;-82
2023/10/31 06:32:54;;;;;;;5.80;3.58;;;10.20;99.90;;;;;;15540125;22;20024;-80
2023/10/31 06:38:56;;;;;;;6.93;3.95;;;10.20;99.90;;;;;;15567589;22;20043;-83
2023/10/31 06:44:58;;;;;;;8.98;3.90;;;10.00;99.90;;;;;;15543545;22;20016;-84
2023/10/31 06:51:00;;;;;;;7.57;4.82;;;9.90;99.90;;;;;;15612076;22;20091;-84
2023/10/31 06:57:02;;;;;;;6.93;4.38;;;9.70;99.90;;;;;;15582699;22;20035;-85
2023/10/31 07:03:08;;;;;;;5.43;3.58;;;9.70;99.90;;;;;;15579966;22;20049;-83
2023/10/31 07:09:11;;;;;;;4.93;2.20;;;9.60;99.90;;;;;;15548294;22;20019;-84
2023/10/31 07:15:12;;;;;;;2.72;1.90;;;9.60;99.90;;;;;;15544950;22;20467;-80
2023/10/31 07:21:14;;;;;;;2.92;1.77;;;9.60;99.90;;;;;;15575823;22;20111;-81
2023/10/31 07:27:16;;;;;;;2.60;1.70;;;9.50;99.90;;;;;;15540523;22;20234;-81
2023/10/31 07:33:18;;;;;;;3.13;1.73;;;9.50;99.90;;;;;;15569912;22;20023;-83
2023/10/31 07:39:20;;;;;;;2.65;1.42;;;9.50;99.90;;;;;;15530722;22;20474;-82
2023/10/31 07:45:22;;;;;;;3.33;1.50;;;9.60;99.90;;;;;;15569950;22;20024;-83
2023/10/31 07:51:24;;;;;;;2.92;1.30;;;9.50;99.90;;;;;;15541369;22;20509;-83
2023/10/31 07:57:26;;;;;;;1.75;1.17;;;9.60;99.90;;;;;;15536516;22;20449;-84
2023/10/31 08:03:28;;;;;;;2.28;0.90;;;9.60;99.90;;;;;;15537297;22;20028;-82
2023/10/31 08:09:30;;;;;;;1.98;1.00;;;9.60;99.90;;;;;;15536223;22;20020;-83
2023/10/31 08:15:32;;;;;;;4.35;2.55;;;9.70;99.90;;;;;;15569120;22;20027;-81
2023/10/31 08:21:35;;;;;;;2.17;1.00;;;9.70;99.90;;;;;;15563385;22;20027;-83
2023/10/31 08:27:37;;;;;;;0.88;0.70;;;9.90;99.90;;;;;;15536886;22;20024;-81
2023/10/31 08:33:39;;;;;;;1.27;0.77;;;10.00;99.90;;;;;;15540655;22;20548;-82
2023/10/31 08:39:41;;;;;;;3.05;1.20;;;10.20;99.90;;;;;;15539456;22;20064;-82
2023/10/31 08:45:43;;;;;;;1.17;0.80;;;10.60;99.90;;;;;;15539902;22;20023;-83
2023/10/31 08:51:45;;;;;;;1.00;0.63;;;10.50;99.90;;;;;;15540628;22;20034;-82
2023/10/31 08:57:47;;;;;;;1.08;0.70;;;10.40;99.90;;;;;;15566339;22;20023;-81
2023/10/31 09:03:49;;;;;;;1.10;0.80;;;10.40;99.90;;;;;;15570071;22;20024;-83
2023/10/31 09:09:51;;;;;;;2.95;0.90;;;10.40;99.90;;;;;;15543189;22;20019;-81
2023/10/31 09:15:53;;;;;;;2.17;0.82;;;10.50;99.90;;;;;;15535994;22;20680;-82
2023/10/31 09:21:56;;;;;;;2.40;1.00;;;10.50;99.90;;;;;;15542892;22;20046;-84
2023/10/31 09:28:00;;;;;;;1.60;0.98;;;10.50;99.90;;;;;;15540272;22;20015;-81
2023/10/31 09:34:03;;;;;;;2.97;0.95;;;10.60;99.90;;;;;;15538417;22;20028;-80
2023/10/31 09:40:06;;;;;;;2.30;0.90;;;10.60;99.90;;;;;;15572343;22;20028;-81
2023/10/31 09:46:09;;;;;;;1.92;1.10;;;10.60;99.90;;;;;;15529523;22;20106;-79
2023/10/31 09:52:11;;;;;;;2.63;1.30;;;10.60;99.90;;;;;;15535699;22;20098;-80
2023/10/31 09:58:14;;;;;;;2.55;1.27;;;10.70;99.90;;;;;;15532758;22;20548;-80
2023/10/31 10:04:21;;;;;;;1.90;1.20;;;10.80;99.90;;;;;;15539293;22;20020;-81
2023/10/31 10:10:24;;;;;;;2.67;1.70;;;10.90;99.90;;;;;;15543175;22;20139;-80
2023/10/31 10:16:33;;;;;;;3.67;2.10;;;11.00;99.90;;;;;;15543638;22;20019;-80
2023/10/31 10:22:40;;;;;;;5.28;2.42;;;11.00;99.90;;;;;;15583279;22;20047;-81
2023/10/31 10:28:46;;;;;;;6.55;3.50;;;10.90;99.90;;;;;;15556502;22;20496;-82
2023/10/31 10:34:48;;;;;;;5.22;2.80;;;10.70;99.90;;;;;;15569805;22;20023;-82
2023/10/31 10:40:53;;;;;;;6.40;3.03;;;10.60;99.90;;;;;;15538176;22;20449;-84
2023/10/31 10:46:56;;;;;;;7.00;4.22;;;10.50;99.90;;;;;;15539240;22;20020;-81
2023/10/31 10:53:12;;;;;;;6.32;3.83;;;10.50;99.90;;;;;;15539456;22;20023;-81
2023/10/31 10:59:20;;;;;;;8.43;3.90;;;10.50;99.90;;;;;;15564366;22;20024;-81
2023/10/31 11:05:24;;;;;;;7.70;4.72;;;10.70;99.90;;;;;;15564659;22;20086;-81
2023/10/31 11:11:26;;;;;;;7.50;4.55;;;10.70;99.90;;;;;;15541971;22;20031;-81
2023/10/31 11:17:37;;;;;;;6.95;4.15;;;10.80;99.90;;;;;;15564437;22;20107;-79
2023/10/31 11:23:41;;;;;;;8.38;4.90;;;10.90;99.90;;;;;;15537432;22;20121;-80
2023/10/31 11:29:43;;;;;;;8.77;5.15;;;11.00;99.90;;;;;;15538189;22;20035;-82
2023/10/31 11:35:50;;;;;;;9.77;5.75;;;11.00;99.90;;;;;;15559462;22;20023;-80
2023/10/31 11:41:56;;;;;;;8.70;5.43;;;11.10;99.90;;;;;;15538552;22;20023;-81
2023/10/31 11:47:58;;;;;;;9.02;6.00;;;11.00;99.90;;;;;;15528795;22;20020;-80
2023/10/31 11:54:02;;;;;;;10.48;5.95;;;11.00;99.90;;;;;;15533766;22;20094;-82
2023/10/31 12:00:05;;;;;;;12.48;6.50;;;11.10;99.90;;;;;;15539235;22;20028;-80
2023/10/31 12:06:09;;;;;;;8.18;5.82;;;11.00;99.90;;;;;;15560987;22;20338;-80
2023/10/31 12:12:11;;;;;;;11.68;6.90;;;11.10;99.90;;;;;;15532839;22;20028;-83
2023/10/31 12:18:13;;;;;;;11.18;7.25;;;11.10;99.90;;;;;;15539301;22;20023;-80
2023/10/31 12:24:16;;;;;;;10.27;6.68;;;11.10;99.90;;;;;;15538467;22;20035;-81
2023/10/31 12:30:22;;;;;;;8.25;5.93;;;11.10;99.90;;;;;;15565947;22;20024;-81
2023/10/31 12:36:25;;;;;;;12.52;6.43;;;11.10;99.90;;;;;;15566570;22;20058;-83
2023/10/31 12:42:30;;;;;;;8.18;6.10;;;11.20;99.90;;;;;;15560839;22;20028;-81
2023/10/31 12:48:37;;;;;;;8.95;6.13;;;11.30;99.90;;;;;;15539700;22;20158;-81
2023/10/31 12:54:39;;;;;;;8.95;6.20;;;11.30;99.90;;;;;;15545367;22;20035;-81
2023/10/31 13:00:42;;;;;;;7.57;5.75;;;11.10;99.90;;;;;;15554122;22;20509;-82
2023/10/31 13:06:55;;;;;;;5.97;4.97;;;11.40;99.90;;;;;;15535996;22;20023;-82
2023/10/31 13:12:57;;;;;;;8.68;4.57;;;11.60;99.90;;;;;;15530320;22;20027;-84
2023/10/31 13:18:59;;;;;;;8.20;4.75;;;11.90;99.90;;;;;;15531627;22;20103;-83
2023/10/31 13:25:07;;;;;;;6.13;4.80;;;12.00;99.90;;;;;;15554840;22;20117;-82
2023/10/31 13:31:11;;;;;;;5.95;4.30;;;12.00;99.90;;;;;;15529266;22;20028;-82
2023/10/31 13:37:12;;;;;;;7.68;4.72;;;12.00;99.90;;;;;;15535424;22;20028;-83
2023/10/31 13:43:14;;;;;;;12.13;7.38;;;11.90;99.90;;;;;;15565917;22;20067;-83
2023/10/31 13:49:16;;;;;;;9.85;5.53;;;11.90;99.90;;;;;;15529349;22;20020;-83
2023/10/31 13:55:18;;;;;;;10.02;4.90;;;11.90;99.90;;;;;;15553709;22;20034;-83
2023/10/31 14:01:24;;;;;;;6.88;4.90;;;12.00;99.90;;;;;;15560834;22;20350;-83
2023/10/31 14:07:26;;;;;;;8.02;5.55;;;12.00;99.90;;;;;;15555218;22;20505;-84
2023/10/31 14:13:28;;;;;;;8.73;5.60;;;12.10;99.90;;;;;;15561257;22;20454;-85
2023/10/31 14:19:30;;;;;;;8.43;5.35;;;12.10;99.90;;;;;;15566603;22;20059;-85
2023/10/31 14:25:32;;;;;;;9.38;5.93;;;12.10;99.90;;;;;;15586876;22;20183;-82
2023/10/31 14:31:41;;;;;;;12.20;7.18;;;11.90;99.90;;;;;;15537969;22;20086;-82
2023/10/31 14:37:44;;;;;;;9.77;6.53;;;11.70;99.90;;;;;;15527651;22;20035;-84
2023/10/31 14:43:46;;;;;;;12.50;7.22;;;11.60;99.90;;;;;;15559280;22;20342;-82
2023/10/31 14:49:47;;;;;;;9.52;6.40;;;11.50;99.90;;;;;;15554905;22;20023;-84
2023/10/31 14:55:49;;;;;;;9.82;6.07;;;11.50;99.90;;;;;;15547421;22;20024;-83
2023/10/31 15:01:51;;;;;;;11.25;6.95;;;11.50;99.90;;;;;;15527777;22;20362;-81
2023/10/31 15:07:53;;;;;;;9.38;6.88;;;11.40;99.90;;;;;;15520356;22;20020;-85
2023/10/31 15:13:57;;;;;;;12.57;7.17;;;11.30;99.90;;;;;;15526221;22;20051;-83
2023/10/31 15:19:58;;;;;;;14.85;8.10;;;11.30;99.90;;;;;;15523881;22;20664;-81
2023/10/31 15:26:00;;;;;;;15.45;8.73;;;11.30;99.90;;;;;;15546410;22;20775;-83
2023/10/31 15:32:03;;;;;;;14.38;7.20;;;11.20;99.90;;;;;;15554283;22;20127;-81
2023/10/31 15:38:05;;;;;;;13.18;7.65;;;11.20;99.90;;;;;;15554254;22;20475;-83
2023/10/31 15:44:06;;;;;;;14.13;8.60;;;11.10;99.90;;;;;;15526955;22;20412;-81
2023/10/31 15:50:09;;;;;;;14.32;8.13;;;11.10;99.90;;;;;;15525503;22;20071;-85
2023/10/31 15:56:11;;;;;;;14.18;7.93;;;11.10;99.90;;;;;;15584291;22;20086;-85
2023/10/31 16:02:15;;;;;;;16.88;8.15;;;11.00;99.90;;;;;;15575633;22;20483;-85
2023/10/31 16:08:17;;;;;;;11.15;8.00;;;11.00;99.90;;;;;;15527829;22;20154;-85
2023/10/31 16:14:21;;;;;;;14.90;7.55;;;10.90;99.90;;;;;;15523640;22;20027;-82
2023/10/31 16:20:24;;;;;;;14.48;8.52;;;10.90;99.90;;;;;;15519994;22;20023;-83
2023/10/31 16:26:25;;;;;;;13.43;7.50;;;10.90;99.90;;;;;;15519232;22;20023;-82
2023/10/31 16:32:27;;;;;;;13.18;7.32;;;10.90;99.90;;;;;;15548941;22;20025;-83
2023/10/31 16:38:29;;;;;;;15.63;6.78;;;10.80;99.90;;;;;;15556398;22;20497;-82
2023/10/31 16:44:32;;;;;;;14.23;6.00;;;10.90;99.90;;;;;;15545837;22;20024;-83
2023/10/31 16:50:33;;;;;;;11.65;6.18;;;10.90;99.90;;;;;;15524364;22;20028;-83
2023/10/31 16:56:36;;;;;;;9.38;4.43;;;10.90;99.90;;;;;;15554096;22;20438;-81
2023/10/31 17:02:38;;;;;;;6.22;3.30;;;10.90;99.90;;;;;;15543282;22;20083;-81
2023/10/31 17:08:40;;;;;;;5.15;2.38;;;10.90;99.90;;;;;;15578274;22;20023;-82
2023/10/31 17:14:42;;;;;;;5.55;2.53;;;10.80;99.90;;;;;;15553357;22;20024;-81
2023/10/31 17:20:45;;;;;;;5.20;1.90;;;10.70;99.90;;;;;;15563042;22;20024;-82
2023/10/31 17:26:47;;;;;;;5.93;2.33;;;10.70;99.90;;;;;;15530380;22;20020;-83
2023/10/31 17:32:49;;;;;;;4.25;2.20;;;10.80;99.90;;;;;;15527250;22;20912;-81
2023/10/31 17:38:51;;;;;;;7.32;3.78;;;10.60;99.90;;;;;;15561575;22;20023;-81
2023/10/31 17:44:53;;;;;;;6.47;3.40;;;10.70;99.90;;;;;;15585127;22;20476;-82
2023/10/31 17:50:56;;;;;;;7.90;3.20;;;10.60;99.90;;;;;;15581556;22;20326;-82
2023/10/31 17:57:00;;;;;;;5.95;3.20;;;10.60;99.90;;;;;;15574085;22;20034;-81
2023/10/31 18:03:02;;;;;;;4.72;2.50;;;10.60;99.90;;;;;;15569725;22;20067;-81
2023/10/31 18:09:06;;;;;;;7.13;2.50;;;10.60;99.90;;;;;;15566865;22;20456;-81
2023/10/31 18:15:09;;;;;;;6.70;2.57;;;10.50;99.90;;;;;;15550700;22;20038;-83
2023/10/31 18:21:11;;;;;;;5.07;2.60;;;10.60;99.90;;;;;;15525181;22;20023;-83
2023/10/31 18:27:13;;;;;;;5.22;2.30;;;10.50;99.90;;;;;;15549847;22;20027;-83
2023/10/31 18:33:15;;;;;;;5.88;2.40;;;10.40;99.90;;;;;;15550879;22;20289;-82
2023/10/31 18:39:17;;;;;;;5.63;1.90;;;10.40;99.90;;;;;;15531033;22;20502;-82
2023/10/31 18:45:19;;;;;;;5.95;2.20;;;10.30;99.90;;;;;;15555052;22;20469;-83
2023/10/31 18:51:21;;;;;;;6.40;2.70;;;10.50;99.90;;;;;;15526246;22;20027;-82
2023/10/31 18:57:24;;;;;;;4.35;2.08;;;10.50;99.90;;;;;;15553033;22;20035;-82
2023/10/31 19:03:26;;;;;;;4.75;1.80;;;10.30;99.90;;;;;;15525082;22;20034;-82
2023/10/31 19:09:28;;;;;;;4.28;1.60;;;10.30;99.90;;;;;;15523872;22;20020;-83
2023/10/31 19:15:30;;;;;;;3.33;1.60;;;10.40;99.90;;;;;;15524082;22;20028;-82
2023/10/31 19:21:32;;;;;;;4.68;1.80;;;10.40;99.90;;;;;;15520844;22;20027;-82
2023/10/31 19:27:33;;;;;;;5.00;2.00;;;10.30;99.90;;;;;;15519762;22;20047;-82
2023/10/31 19:33:35;;;;;;;4.30;1.60;;;10.30;99.90;;;;;;15523183;22;20035;-84
2023/10/31 19:39:37;;;;;;;5.00;1.90;;;10.40;99.90;;;;;;15524812;22;20107;-84
2023/10/31 19:45:42;;;;;;;5.60;1.70;;;10.30;99.90;;;;;;15553647;22;20102;-83
2023/10/31 19:51:44;;;;;;;4.32;1.70;;;10.40;99.90;;;;;;15525436;22;20839;-83
2023/10/31 19:57:48;;;;;;;5.30;2.05;;;10.30;99.90;;;;;;15547830;22;20063;-83
2023/10/31 20:03:50;;;;;;;5.47;2.50;;;10.40;99.90;;;;;;15525849;22;20462;-84
2023/10/31 20:09:52;;;;;;;6.35;2.67;;;10.30;99.90;;;;;;15529953;22;20019;-85
2023/10/31 20:15:55;;;;;;;9.40;2.85;;;10.20;99.90;;;;;;15515586;22;20054;-84
2023/10/31 20:21:57;;;;;;;6.47;3.33;;;10.20;99.90;;;;;;15519927;22;20032;-85
2023/10/31 20:28:02;;;;;;;6.25;3.85;;;10.10;99.90;;;;;;15524726;22;20158;-84
2023/10/31 20:34:04;;;;;;;12.35;5.63;;;10.10;99.90;;;;;;15528262;22;20515;-86
2023/10/31 20:40:07;;;;;;;13.93;7.47;;;10.10;99.90;;;;;;15545560;22;20418;-85
2023/10/31 20:46:09;;;;;;;13.52;8.50;;;10.10;99.90;;;;;;15533625;22;20020;-84
2023/10/31 20:52:11;;;;;;;21.20;10.70;;;10.00;99.90;;;;;;15536742;22;20020;-84
2023/10/31 20:58:13;;;;;;;15.10;11.15;;;10.10;99.90;;;;;;15538036;22;20024;-84
2023/10/31 21:04:15;;;;;;;15.73;11.82;;;10.10;99.90;;;;;;15558345;22;20503;-84
2023/10/31 21:10:18;;;;;;;22.00;13.13;;;10.00;99.90;;;;;;15555711;22;20134;-85
2023/10/31 21:16:19;;;;;;;21.98;13.05;;;10.10;99.90;;;;;;15588574;22;20083;-83
2023/10/31 21:22:21;;;;;;;19.27;13.65;;;10.20;99.90;;;;;;15621795;22;20007;-84
2023/10/31 21:28:23;;;;;;;21.75;14.13;;;10.20;99.90;;;;;;15569412;22;20019;-86
2023/10/31 21:34:25;;;;;;;22.38;15.43;;;10.10;99.90;;;;;;15532303;22;20024;-84
2023/10/31 21:40:27;;;;;;;20.60;14.70;;;10.20;99.90;;;;;;15529990;22;20981;-84
2023/10/31 21:46:29;;;;;;;19.23;14.35;;;10.10;99.90;;;;;;15532782;22;20026;-86
2023/10/31 21:52:31;;;;;;;20.95;14.65;;;10.10;99.90;;;;;;15530782;22;20024;-83
2023/10/31 21:58:33;;;;;;;21.55;14.30;;;10.10;99.90;;;;;;15526598;22;20030;-83
2023/10/31 22:04:35;;;;;;;18.83;14.32;;;10.10;99.90;;;;;;15530075;22;20031;-84
2023/10/31 22:10:37;;;;;;;21.25;14.52;;;10.10;99.90;;;;;;15511597;22;20461;-83
2023/10/31 22:16:39;;;;;;;21.50;14.25;;;10.10;99.90;;;;;;15556526;22;20030;-83
2023/10/31 22:22:41;;;;;;;19.13;12.75;;;10.10;99.90;;;;;;15565584;22;20446;-83
2023/10/31 22:28:42;;;;;;;20.70;14.00;;;10.10;99.90;;;;;;15528405;22;20023;-83
2023/10/31 22:34:44;;;;;;;19.98;14.18;;;10.10;99.90;;;;;;15563631;22;20023;-84
2023/10/31 22:40:46;;;;;;;18.77;13.60;;;10.20;99.90;;;;;;15562424;22;20464;-84
2023/10/31 22:46:48;;;;;;;22.00;15.35;;;10.20;99.90;;;;;;15524396;22;20023;-83
2023/10/31 22:52:50;;;;;;;24.35;15.55;;;10.20;99.90;;;;;;15554873;22;20031;-83
2023/10/31 22:58:52;;;;;;;24.73;15.15;;;10.20;99.90;;;;;;15543822;22;20027;-83
2023/10/31 23:04:55;;;;;;;23.25;15.55;;;10.10;99.90;;;;;;15560882;22;20027;-84
2023/10/31 23:10:57;;;;;;;25.60;17.45;;;10.20;99.90;;;;;;15561148;22;20026;-83
2023/10/31 23:16:59;;;;;;;26.58;18.15;;;10.20;99.90;;;;;;15559835;22;20032;-86
2023/10/31 23:23:01;;;;;;;26.42;18.10;;;10.20;99.90;;;;;;15531143;22;20437;-84
2023/10/31 23:29:04;;;;;;;26.98;18.85;;;10.30;99.90;;;;;;15552229;22;20020;-83
2023/10/31 23:35:06;;;;;;;28.17;18.30;;;10.30;99.90;;;;;;15560467;22;20027;-83
2023/10/31 23:41:09;;;;;;;26.85;17.45;;;10.30;99.90;;;;;;15530220;22;20043;-83
2023/10/31 23:47:11;;;;;;;24.38;15.20;;;10.30;99.90;;;;;;15531900;22;20031;-88
2023/10/31 23:53:13;;;;;;;21.90;14.32;;;10.20;99.90;;;;;;15529317;22;20029;-84
2023/10/31 23:59:15;;;;;;;20.63;12.88;;;10.20;99.90;;;;;;15550883;22;20765;-84
